Main page
METAR-TAF:

METAR-TAF

Airports :

Lyon–Bron Airport

Lyon, France

latitude: 45-43N, longitude: 004-57E, elevation: 200 m

Current weather observation

The report was made 29 minutes ago, at 17:00 UTC
Wind 2 kt from variable directions
Temperature 30°C
Humidity 31%
Pressure 1016 hPa
Visibility 10 km or more
no clouds below 1500 m and no cumulonimbus

METAR: LFLY 201700Z AUTO VRB02KT CAVOK 30/11 Q1016 NOSIG

Time: 19:29 (17:29 UTC)

Forecast

The report was made 6 hours and 29 minutes ago, at 11:00 UTC
Forecast valid from 20 at 12 UTC to 21 at 12 UTC
Wind 5 kt from variable directions
Visibility 10 km or more
no clouds below 1500 m and no cumulonimbus
Probability 40% :
Temporary
from 20 at 18 UTC to 21 at 12 UTC
Wind 10 kt from the South

TAF: LFLY 201100Z 2012/2112 VRB05KT CAVOK PROB40 TEMPO 2018/2112 18010KT

Weather observations and forecasts of more than 4000 airports (METAR and TAF reports).

The available stations are represented by yellow and red dots on the map.

Hover mouse over dot to see the name of the station.

Then click to see weather observations and forecasts.

To change the map : click on the green buttons with a black cross to zoom in, on the green button with a dash to zoom out, or on the green arrows for adjacent maps.


METAR-TAF: